KPSC

Tri-Cities Airport

Pasco, Washington, USA
METAR KPSC 181253Z AUTO 13010KT 10SM BKN060 OVC110 10/05 A2972 RMK AO2 RAE01 SLP064 P0000 T01000050
Observed Flight Rules
Dec-18 @ 12:53 UTC (14 minutes ago) Visual Flight Rules
Wind Visibility Clouds
130° at 10 knots 10 miles
  • Broken at 6,000' AGL
  • Overcast at 11,000' AGL
Temperatures Readings Precipitation
Current 10°C / 50°F
Dewpoint 5°C / 41°F
Humidity 71%
Altimeter 29.72" Hg
Pressure 1006.4 hPa
Elevation 121
Current Rain 0.005
METAR KPSC 181253Z AUTO 13010KT 10SM BKN060 OVC110 10/05 A2972 RMK AO2 RAE01 SLP064 P0000 T01000050
Observed Flight Rules
Dec-18 @ 12:53 UTC
(14 minutes ago)
VFR
Wind Visibility
130° at 10 knots 10 miles
Clouds
  • Broken at 6,000' AGL
  • Overcast at 11,000' AGL
Temperature Dewpoint
10°C / 50°F 5°C / 41°F
Humidity Altimeter Pressure
71% 29.72" Hg 1006.4 hPa
Current Rain
0.005